createdAt,value
2019-04-06T00:00:26.117Z,22.09
2019-04-06T00:01:26.122Z,22.12
2019-04-06T00:02:26.128Z,22.10
2019-04-06T00:03:26.135Z,22.02
2019-04-06T00:04:26.139Z,22.10
2019-04-06T00:05:26.143Z,22.04
2019-04-06T00:06:26.150Z,22.01
2019-04-06T00:07:26.157Z,21.99
2019-04-06T00:08:26.163Z,22.07
2019-04-06T00:09:26.166Z,22.07
2019-04-06T00:10:26.173Z,22.04
2019-04-06T00:11:26.180Z,22.10
2019-04-06T00:12:26.181Z,22.09
2019-04-06T00:13:26.187Z,22.07
2019-04-06T00:14:26.194Z,22.07
2019-04-06T00:15:26.254Z,22.07
2019-04-06T00:16:26.208Z,21.98
2019-04-06T00:17:26.209Z,22.09
2019-04-06T00:18:26.215Z,22.04
2019-04-06T00:19:26.227Z,22.07
2019-04-06T00:20:26.227Z,21.99
2019-04-06T00:21:26.231Z,22.04
2019-04-06T00:22:26.237Z,22.01
2019-04-06T00:23:26.242Z,22.07
2019-04-06T00:24:26.251Z,22.06
2019-04-06T00:25:26.253Z,22.02
2019-04-06T00:26:26.265Z,22.02
2019-04-06T00:27:26.270Z,22.07
2019-04-06T00:28:26.271Z,22.02
2019-04-06T00:29:26.276Z,22.04
2019-04-06T00:30:26.281Z,21.99
2019-04-06T00:31:26.287Z,22.07
2019-04-06T00:32:26.292Z,21.99
2019-04-06T00:33:26.297Z,22.09
2019-04-06T00:34:26.304Z,22.09
2019-04-06T00:35:26.307Z,22.07
2019-04-06T00:36:26.315Z,22.06
2019-04-06T00:37:26.320Z,22.06
2019-04-06T00:38:26.324Z,22.10
2019-04-06T00:39:26.332Z,22.02
2019-04-06T00:40:26.338Z,22.04
2019-04-06T00:41:26.349Z,22.06
2019-04-06T00:42:26.350Z,22.02
2019-04-06T00:43:26.353Z,22.06
2019-04-06T00:44:26.356Z,22.04
2019-04-06T00:45:26.363Z,22.01
2019-04-06T00:46:26.368Z,22.04
2019-04-06T00:47:26.393Z,22.04
2019-04-06T00:48:26.381Z,22.06
2019-04-06T00:49:26.384Z,21.98
2019-04-06T00:50:26.391Z,22.09
2019-04-06T00:51:26.403Z,22.02
2019-04-06T00:52:26.400Z,22.01
2019-04-06T00:53:26.406Z,22.09
2019-04-06T00:54:26.412Z,22.06
2019-04-06T00:55:26.420Z,22.02
2019-04-06T00:56:26.423Z,22.09
2019-04-06T00:57:26.429Z,22.07
2019-04-06T00:58:26.433Z,22.02
2019-04-06T00:59:26.439Z,21.94
2019-04-06T01:00:26.476Z,22.09
2019-04-06T01:01:26.450Z,22.04
2019-04-06T01:02:26.456Z,22.07
2019-04-06T01:03:26.463Z,22.09
2019-04-06T01:04:26.466Z,22.02
2019-04-06T01:05:26.475Z,22.01
2019-04-06T01:06:26.479Z,22.09
2019-04-06T01:07:26.483Z,22.02
2019-04-06T01:08:26.488Z,22.01
2019-04-06T01:09:26.493Z,22.07
2019-04-06T01:10:26.498Z,22.01
2019-04-06T01:11:26.506Z,22.06
2019-04-06T01:12:26.512Z,22.02
2019-04-06T01:13:26.515Z,22.07
2019-04-06T01:14:26.521Z,21.97
2019-04-06T01:15:26.527Z,22.07
2019-04-06T01:16:26.536Z,22.06
2019-04-06T01:17:26.538Z,22.07
2019-04-06T01:18:26.542Z,22.01
2019-04-06T01:19:26.550Z,22.07
2019-04-06T01:20:26.554Z,22.01
2019-04-06T01:21:26.559Z,22.04
2019-04-06T01:22:26.566Z,21.95
2019-04-06T01:23:26.570Z,21.95
2019-04-06T01:24:26.577Z,21.99
2019-04-06T01:25:26.584Z,21.95
2019-04-06T01:26:26.587Z,21.94
2019-04-06T01:27:26.593Z,22.07
2019-04-06T01:28:26.597Z,21.94
2019-04-06T01:29:26.616Z,21.98
2019-04-06T01:30:26.616Z,21.98
2019-04-06T01:31:26.616Z,21.94
2019-04-06T01:32:26.619Z,22.04
2019-04-06T01:33:26.643Z,21.94
2019-04-06T01:34:26.630Z,21.99
2019-04-06T01:35:26.636Z,21.94
2019-04-06T01:36:26.641Z,22.04
2019-04-06T01:37:26.646Z,21.95
2019-04-06T01:38:26.654Z,21.98
2019-04-06T01:39:26.657Z,21.98
2019-04-06T01:40:26.662Z,22.06
2019-04-06T01:41:26.738Z,22.06
2019-04-06T01:42:26.676Z,21.95
2019-04-06T01:43:26.681Z,22.01
2019-04-06T01:44:26.684Z,22.02
2019-04-06T01:45:26.689Z,21.98
2019-04-06T01:46:26.695Z,22.06
2019-04-06T01:47:26.700Z,22.06
2019-04-06T01:48:26.706Z,21.94
2019-04-06T01:49:26.712Z,21.97
2019-04-06T01:50:26.716Z,21.95
2019-04-06T01:51:26.762Z,22.01
2019-04-06T01:52:26.727Z,22.07
2019-04-06T01:53:26.731Z,22.04
2019-04-06T01:54:26.830Z,21.98
2019-04-06T01:55:26.744Z,22.01
2019-04-06T01:56:26.748Z,21.94
2019-04-06T01:57:26.755Z,22.02
2019-04-06T01:58:26.761Z,22.01
2019-04-06T01:59:26.767Z,21.95
2019-04-06T02:00:26.785Z,21.95
2019-04-06T02:01:26.779Z,21.97
2019-04-06T02:02:26.782Z,22.02
2019-04-06T02:03:26.819Z,21.94
2019-04-06T02:04:26.893Z,21.94
2019-04-06T02:05:26.812Z,21.98
2019-04-06T02:06:26.804Z,21.99
2019-04-06T02:07:26.807Z,21.94
2019-04-06T02:08:26.814Z,21.94
2019-04-06T02:09:26.822Z,21.94
2019-04-06T02:10:26.827Z,21.99
2019-04-06T02:11:26.830Z,21.94
2019-04-06T02:12:26.882Z,21.94
2019-04-06T02:13:26.839Z,21.99
2019-04-06T02:14:26.846Z,21.95
2019-04-06T02:15:26.851Z,21.92
2019-04-06T02:16:26.859Z,22.01
2019-04-06T02:17:26.862Z,21.99
2019-04-06T02:18:26.869Z,21.98
2019-04-06T02:19:26.876Z,21.94
2019-04-06T02:20:26.882Z,22.01
2019-04-06T02:21:26.883Z,22.01
2019-04-06T02:22:26.894Z,21.94
2019-04-06T02:23:26.895Z,21.97
2019-04-06T02:24:26.901Z,21.91
2019-04-06T02:25:26.928Z,21.90
2019-04-06T02:26:30.632Z,22.01
2019-04-06T02:27:26.925Z,21.95
2019-04-06T02:28:26.922Z,21.91
2019-04-06T02:29:26.928Z,21.99
2019-04-06T02:30:26.935Z,21.99
2019-04-06T02:31:26.938Z,21.99
2019-04-06T02:32:26.947Z,21.88
2019-04-06T02:33:27.140Z,21.94
2019-04-06T02:34:26.958Z,21.98
2019-04-06T02:35:27.116Z,21.94
2019-04-06T02:36:26.965Z,21.95
2019-04-06T02:37:26.971Z,21.91
2019-04-06T02:38:26.975Z,21.95
2019-04-06T02:39:26.981Z,21.97
2019-04-06T02:40:26.987Z,21.99
2019-04-06T02:41:26.992Z,21.99
2019-04-06T02:42:26.998Z,21.85
2019-04-06T02:43:27.004Z,21.97
2019-04-06T02:44:27.100Z,21.94
2019-04-06T02:45:27.020Z,21.95
2019-04-06T02:46:27.021Z,21.97
2019-04-06T02:47:27.039Z,21.91
2019-04-06T02:48:27.060Z,21.97
2019-04-06T02:49:27.057Z,21.92
2019-04-06T02:50:27.046Z,21.94
2019-04-06T02:51:27.050Z,21.97
2019-04-06T02:52:27.070Z,21.91
2019-04-06T02:53:27.058Z,21.98
2019-04-06T02:54:27.062Z,21.83
2019-04-06T02:55:27.086Z,21.94
2019-04-06T02:56:27.073Z,21.91
2019-04-06T02:57:27.077Z,21.94
2019-04-06T02:58:27.152Z,21.92
2019-04-06T02:59:27.097Z,21.97
2019-04-06T03:00:27.095Z,21.91
2019-04-06T03:01:27.100Z,21.97
2019-04-06T03:02:27.106Z,21.88
2019-04-06T03:03:27.117Z,21.94
2019-04-06T03:04:27.116Z,21.92
2019-04-06T03:05:27.312Z,21.95
2019-04-06T03:06:27.127Z,21.90
2019-04-06T03:07:27.144Z,21.95
2019-04-06T03:08:27.139Z,21.90
2019-04-06T03:09:27.148Z,21.94
2019-04-06T03:10:27.150Z,21.94
2019-04-06T03:11:27.156Z,21.83
2019-04-06T03:12:27.158Z,21.92
2019-04-06T03:13:27.446Z,21.97
2019-04-06T03:14:27.169Z,21.97
2019-04-06T03:15:27.179Z,21.95
2019-04-06T03:16:27.393Z,21.92
2019-04-06T03:17:27.185Z,21.92
2019-04-06T03:18:27.191Z,21.85
2019-04-06T03:19:27.275Z,21.91
2019-04-06T03:20:27.204Z,21.85
2019-04-06T03:21:27.255Z,21.79
2019-04-06T03:22:27.271Z,21.91
2019-04-06T03:23:27.219Z,21.81
2019-04-06T03:24:27.224Z,21.91
2019-04-06T03:25:27.230Z,21.91
2019-04-06T03:26:27.236Z,21.90
2019-04-06T03:27:27.242Z,21.90
2019-04-06T03:28:27.250Z,21.94
2019-04-06T03:29:27.254Z,21.88
2019-04-06T03:30:27.273Z,21.97
2019-04-06T03:31:28.030Z,21.91
2019-04-06T03:32:27.435Z,21.92
2019-04-06T03:33:27.272Z,21.94
2019-04-06T03:34:27.348Z,21.97
2019-04-06T03:35:27.513Z,21.90
2019-04-06T03:36:27.334Z,21.95
2019-04-06T03:37:27.358Z,21.90
2019-04-06T03:38:27.297Z,21.97
2019-04-06T03:39:27.304Z,21.95
2019-04-06T03:40:27.326Z,21.97
2019-04-06T03:41:27.485Z,21.92
2019-04-06T03:42:27.320Z,21.92
2019-04-06T03:43:27.326Z,21.90
2019-04-06T03:44:27.334Z,21.90
2019-04-06T03:45:27.335Z,21.95
2019-04-06T03:46:27.348Z,21.94
2019-04-06T03:47:27.348Z,21.98
2019-04-06T03:48:27.359Z,21.97
2019-04-06T03:49:27.475Z,21.90
2019-04-06T03:50:27.369Z,21.95
2019-04-06T03:51:27.369Z,21.94
2019-04-06T03:52:27.376Z,21.95
2019-04-06T03:53:27.379Z,21.95
2019-04-06T03:54:27.539Z,21.92
2019-04-06T03:55:27.391Z,21.95
2019-04-06T03:56:27.404Z,21.90
2019-04-06T03:57:27.601Z,21.90
2019-04-06T03:58:27.406Z,21.85
2019-04-06T03:59:27.464Z,21.99
2019-04-06T04:00:27.422Z,21.92
2019-04-06T04:01:27.568Z,21.97
2019-04-06T04:02:27.428Z,21.92
2019-04-06T04:03:27.432Z,21.97
2019-04-06T04:04:27.518Z,21.88
2019-04-06T04:05:27.463Z,21.94
2019-04-06T04:06:27.461Z,21.95
2019-04-06T04:07:27.455Z,21.97
2019-04-06T04:08:27.762Z,22.01
2019-04-06T04:09:27.465Z,21.94
2019-04-06T04:10:27.723Z,21.95
2019-04-06T04:11:27.495Z,21.94
2019-04-06T04:12:27.483Z,21.94
2019-04-06T04:13:27.492Z,21.83
2019-04-06T04:14:27.520Z,21.97
2019-04-06T04:15:27.497Z,21.88
2019-04-06T04:16:27.503Z,21.97
2019-04-06T04:17:27.511Z,21.88
2019-04-06T04:18:27.518Z,21.88
2019-04-06T04:19:27.524Z,21.95
2019-04-06T04:20:27.525Z,22.01
2019-04-06T04:21:27.531Z,21.95
2019-04-06T04:22:27.603Z,21.94
2019-04-06T04:23:27.729Z,21.97
2019-04-06T04:24:27.548Z,21.99
2019-04-06T04:25:27.813Z,21.98
2019-04-06T04:26:27.675Z,21.98
2019-04-06T04:27:30.177Z,21.97
2019-04-06T04:28:27.568Z,21.95
2019-04-06T04:29:27.576Z,22.01
2019-04-06T04:30:32.900Z,21.95
2019-04-06T04:31:27.582Z,21.98
2019-04-06T04:32:27.590Z,21.92
2019-04-06T04:33:27.593Z,21.85
2019-04-06T04:34:27.598Z,21.88
2019-04-06T04:35:27.607Z,22.01
2019-04-06T04:36:27.828Z,21.98
2019-04-06T04:37:27.613Z,21.91
2019-04-06T04:38:27.620Z,21.95
2019-04-06T04:39:27.624Z,21.94
2019-04-06T04:40:27.630Z,22.02
2019-04-06T04:41:27.693Z,21.92
2019-04-06T04:42:27.972Z,21.95
2019-04-06T04:43:27.683Z,21.94
2019-04-06T04:44:27.652Z,21.98
2019-04-06T04:45:27.861Z,21.95
2019-04-06T04:46:27.663Z,21.99
2019-04-06T04:47:27.669Z,22.02
2019-04-06T04:48:27.673Z,22.07
2019-04-06T04:49:27.684Z,22.04
2019-04-06T04:50:27.687Z,22.04
2019-04-06T04:51:27.690Z,21.98
2019-04-06T04:52:27.695Z,22.04
2019-04-06T04:53:27.700Z,21.99
2019-04-06T04:54:27.705Z,22.02
2019-04-06T04:55:27.711Z,22.07
2019-04-06T04:56:27.715Z,22.06
2019-04-06T04:57:39.281Z,22.04
2019-04-06T04:58:27.827Z,22.02
2019-04-06T04:59:27.737Z,22.10
2019-04-06T05:00:27.742Z,22.02
2019-04-06T05:01:27.745Z,22.02
2019-04-06T05:02:27.894Z,21.99
2019-04-06T05:03:27.752Z,22.02
2019-04-06T05:04:27.759Z,22.09
2019-04-06T05:05:27.763Z,22.13
2019-04-06T05:06:27.884Z,22.07
2019-04-06T05:07:27.774Z,22.09
2019-04-06T05:08:27.781Z,22.13
2019-04-06T05:09:27.839Z,22.07
2019-04-06T05:10:27.791Z,22.16
2019-04-06T05:11:27.796Z,22.16
2019-04-06T05:12:27.801Z,22.17
2019-04-06T05:13:27.848Z,22.14
2019-04-06T05:14:27.947Z,22.16
2019-04-06T05:15:27.818Z,22.13
2019-04-06T05:16:27.933Z,22.12
2019-04-06T05:17:27.843Z,22.20
2019-04-06T05:18:27.977Z,22.16
2019-04-06T05:19:27.900Z,22.16
2019-04-06T05:20:27.945Z,22.16
2019-04-06T05:21:27.849Z,22.19
2019-04-06T05:22:27.954Z,22.16
2019-04-06T05:23:27.861Z,22.17
2019-04-06T05:24:27.865Z,22.17
2019-04-06T05:25:27.873Z,22.09
2019-04-06T05:26:36.825Z,22.16
2019-04-06T05:27:28.080Z,22.13
2019-04-06T05:28:27.888Z,22.14
2019-04-06T05:29:27.891Z,22.16
2019-04-06T05:30:27.896Z,22.14
2019-04-06T05:31:28.076Z,22.14
2019-04-06T05:32:28.061Z,22.17
2019-04-06T05:33:27.913Z,22.17
2019-04-06T05:34:27.920Z,22.14
2019-04-06T05:35:27.929Z,22.19
2019-04-06T05:36:27.931Z,22.12
2019-04-06T05:37:27.943Z,22.04
2019-04-06T05:38:27.943Z,22.09
2019-04-06T05:39:27.947Z,22.23
2019-04-06T05:40:27.952Z,22.19
2019-04-06T05:41:27.956Z,22.20
2019-04-06T05:42:27.996Z,22.23
2019-04-06T05:43:27.968Z,22.22
2019-04-06T05:44:27.975Z,22.20
2019-04-06T05:45:28.178Z,22.25
2019-04-06T05:46:27.984Z,22.16
2019-04-06T05:47:27.989Z,22.20
2019-04-06T05:48:27.995Z,22.29
2019-04-06T05:49:28.001Z,22.27
2019-04-06T05:50:28.005Z,22.25
2019-04-06T05:51:28.011Z,22.20
2019-04-06T05:52:28.077Z,22.23
2019-04-06T05:53:28.021Z,22.23
2019-04-06T05:54:28.031Z,22.27
2019-04-06T05:55:28.233Z,22.28
2019-04-06T05:56:28.050Z,22.28
2019-04-06T05:57:31.536Z,22.29
2019-04-06T05:58:28.247Z,22.25
2019-04-06T05:59:28.054Z,22.23
2019-04-06T06:00:28.065Z,22.25
2019-04-06T06:01:28.065Z,22.22
2019-04-06T06:02:28.074Z,22.25
2019-04-06T06:03:28.077Z,22.31
2019-04-06T06:04:28.267Z,22.31
2019-04-06T06:05:28.088Z,22.23
2019-04-06T06:06:28.369Z,22.20
2019-04-06T06:07:28.098Z,22.28
2019-04-06T06:08:30.400Z,22.29
2019-04-06T06:09:28.107Z,22.28
2019-04-06T06:10:28.114Z,22.28
2019-04-06T06:11:28.132Z,22.27
2019-04-06T06:12:28.126Z,22.39
2019-04-06T06:13:28.130Z,22.25
2019-04-06T06:14:28.137Z,22.32
2019-04-06T06:15:28.145Z,22.27
2019-04-06T06:16:28.146Z,22.39
2019-04-06T06:17:28.151Z,22.37
2019-04-06T06:18:28.157Z,22.39
2019-04-06T06:19:28.170Z,22.28
2019-04-06T06:20:28.169Z,22.35
2019-04-06T06:21:28.174Z,22.29
2019-04-06T06:22:28.182Z,22.32
2019-04-06T06:23:28.186Z,22.32
2019-04-06T06:24:28.192Z,22.25
2019-04-06T06:25:28.345Z,22.35
2019-04-06T06:26:28.204Z,22.25
2019-04-06T06:27:28.329Z,22.27
2019-04-06T06:28:28.411Z,22.25
2019-04-06T06:29:28.216Z,22.12
2019-04-06T06:30:28.230Z,21.95
2019-04-06T06:31:28.397Z,21.74
2019-04-06T06:32:28.254Z,21.56
2019-04-06T06:33:28.240Z,21.45
2019-04-06T06:34:28.249Z,21.48
2019-04-06T06:35:28.251Z,21.67
2019-04-06T06:36:28.257Z,21.71
2019-04-06T06:37:28.408Z,21.82
2019-04-06T06:38:28.266Z,21.83
2019-04-06T06:39:28.280Z,21.90
2019-04-06T06:40:28.278Z,22.07
2019-04-06T06:41:28.283Z,21.99
2019-04-06T06:42:28.467Z,22.09
2019-04-06T06:43:28.294Z,22.13
2019-04-06T06:44:28.301Z,22.12
2019-04-06T06:45:28.303Z,22.12
2019-04-06T06:46:28.312Z,22.04
2019-04-06T06:47:28.315Z,22.13
2019-04-06T06:48:28.348Z,22.22
2019-04-06T06:49:28.327Z,22.14
2019-04-06T06:50:28.336Z,22.12
2019-04-06T06:51:28.450Z,22.06
2019-04-06T06:52:28.342Z,22.16
2019-04-06T06:53:28.346Z,22.23
2019-04-06T06:54:28.577Z,22.13
2019-04-06T06:55:28.359Z,22.16
2019-04-06T06:56:28.364Z,22.17
2019-04-06T06:57:28.371Z,22.17
2019-04-06T06:58:28.375Z,22.14
2019-04-06T06:59:28.381Z,22.17
2019-04-06T07:00:28.386Z,22.13
2019-04-06T07:01:28.405Z,22.16
2019-04-06T07:02:28.574Z,22.22
2019-04-06T07:03:28.406Z,22.16
2019-04-06T07:04:28.406Z,22.27
2019-04-06T07:05:28.412Z,22.29
2019-04-06T07:06:28.418Z,22.29
2019-04-06T07:07:28.446Z,22.22
2019-04-06T07:08:28.428Z,22.31
2019-04-06T07:09:28.433Z,22.29
2019-04-06T07:10:28.439Z,22.19
2019-04-06T07:11:28.447Z,22.28
2019-04-06T07:12:28.451Z,22.20
2019-04-06T07:13:28.606Z,22.27
2019-04-06T07:14:28.461Z,22.22
2019-04-06T07:15:28.493Z,22.25
2019-04-06T07:16:28.473Z,22.32
2019-04-06T07:17:28.478Z,22.25
2019-04-06T07:18:28.503Z,22.31
2019-04-06T07:19:28.499Z,22.22
2019-04-06T07:20:28.496Z,22.35
2019-04-06T07:21:28.498Z,22.28
2019-04-06T07:22:28.505Z,22.28
2019-04-06T07:23:28.511Z,22.31
2019-04-06T07:24:28.517Z,22.28
2019-04-06T07:25:28.547Z,22.27
2019-04-06T07:26:28.528Z,22.28
2019-04-06T07:27:28.532Z,22.27
2019-04-06T07:28:37.857Z,22.22
2019-04-06T07:29:28.541Z,22.17
2019-04-06T07:30:28.548Z,22.25
2019-04-06T07:31:28.553Z,22.32
2019-04-06T07:32:28.559Z,22.37
2019-04-06T07:33:28.766Z,22.39
2019-04-06T07:34:28.573Z,22.32
2019-04-06T07:35:28.720Z,22.39
2019-04-06T07:36:28.700Z,22.35
2019-04-06T07:37:28.586Z,22.29
2019-04-06T07:38:28.592Z,22.44
2019-04-06T07:39:28.606Z,22.41
2019-04-06T07:40:28.639Z,22.37
2019-04-06T07:41:28.609Z,22.37
2019-04-06T07:42:28.614Z,22.34
2019-04-06T07:43:28.618Z,22.35
2019-04-06T07:44:28.626Z,22.39
2019-04-06T07:45:28.778Z,22.41
2019-04-06T07:46:28.637Z,22.37
2019-04-06T07:47:28.642Z,22.41
2019-04-06T07:48:28.647Z,22.39
2019-04-06T07:49:28.652Z,22.38
2019-04-06T07:50:28.834Z,22.44
2019-04-06T07:51:28.664Z,22.44
2019-04-06T07:52:28.672Z,22.41
2019-04-06T07:53:28.677Z,22.43
2019-04-06T07:54:28.681Z,22.41
2019-04-06T07:55:28.687Z,22.38
2019-04-06T07:56:28.970Z,22.46
2019-04-06T07:57:28.725Z,22.39
2019-04-06T07:58:28.710Z,22.44
2019-04-06T07:59:28.707Z,22.41
2019-04-06T08:00:28.764Z,22.44
2019-04-06T08:01:28.725Z,22.47
2019-04-06T08:02:28.724Z,22.39
2019-04-06T08:03:28.731Z,22.35
2019-04-06T08:04:28.735Z,22.37
2019-04-06T08:05:28.797Z,22.37
2019-04-06T08:06:28.746Z,22.43
2019-04-06T08:07:29.003Z,22.37
2019-04-06T08:08:29.296Z,22.39
2019-04-06T08:09:28.900Z,22.35
2019-04-06T08:10:28.769Z,22.43
2019-04-06T08:11:29.084Z,22.41
2019-04-06T08:12:28.780Z,22.43
2019-04-06T08:13:28.784Z,22.47
2019-04-06T08:14:28.790Z,22.39
2019-04-06T08:15:28.797Z,22.37
2019-04-06T08:16:28.801Z,22.41
2019-04-06T08:17:28.807Z,22.43
2019-04-06T08:18:28.811Z,22.44
2019-04-06T08:19:28.817Z,22.38
2019-04-06T08:20:28.823Z,22.29
2019-04-06T08:21:29.023Z,22.16
2019-04-06T08:22:29.062Z,22.12
2019-04-06T08:23:28.843Z,21.88
2019-04-06T08:24:28.848Z,21.81
2019-04-06T08:25:28.861Z,21.66
2019-04-06T08:26:28.861Z,21.53
2019-04-06T08:27:29.045Z,21.30
2019-04-06T08:28:28.868Z,21.26
2019-04-06T08:29:29.188Z,21.06
2019-04-06T08:30:28.882Z,20.99
2019-04-06T08:31:28.884Z,20.93
2019-04-06T08:32:28.889Z,20.74
2019-04-06T08:33:28.895Z,20.83
2019-04-06T08:34:29.075Z,20.69
2019-04-06T08:35:28.905Z,20.65
2019-04-06T08:36:28.911Z,20.66
2019-04-06T08:37:28.915Z,20.64
2019-04-06T08:38:28.923Z,20.61
2019-04-06T08:39:28.927Z,20.47
2019-04-06T08:40:28.938Z,20.50
2019-04-06T08:41:28.940Z,20.46
2019-04-06T08:42:28.944Z,20.47
2019-04-06T08:43:28.948Z,20.42
2019-04-06T08:44:29.003Z,20.35
2019-04-06T08:45:28.959Z,20.35
2019-04-06T08:46:28.965Z,20.33
2019-04-06T08:47:28.968Z,20.47
2019-04-06T08:48:29.181Z,20.71
2019-04-06T08:49:28.980Z,20.96
2019-04-06T08:50:29.050Z,21.04
2019-04-06T08:51:28.989Z,21.17
2019-04-06T08:52:29.267Z,21.26
2019-04-06T08:53:29.001Z,21.39
2019-04-06T08:54:29.002Z,21.57
2019-04-06T08:55:29.008Z,21.56
2019-04-06T08:56:29.021Z,21.51
2019-04-06T08:57:29.075Z,21.59
2019-04-06T08:58:29.023Z,21.75
2019-04-06T08:59:29.029Z,21.69
2019-04-06T09:00:29.153Z,21.72
2019-04-06T09:01:29.039Z,21.76
2019-04-06T09:02:29.043Z,21.78
2019-04-06T09:03:29.057Z,21.85
2019-04-06T09:04:29.053Z,21.92
2019-04-06T09:05:29.056Z,22.01
2019-04-06T09:06:29.063Z,22.06
2019-04-06T09:07:29.413Z,21.97
2019-04-06T09:08:29.073Z,21.92
2019-04-06T09:09:29.081Z,21.98
2019-04-06T09:10:29.083Z,21.95
2019-04-06T09:11:29.087Z,22.04
2019-04-06T09:12:29.100Z,22.09
2019-04-06T09:13:29.098Z,22.04
2019-04-06T09:14:29.104Z,22.06
2019-04-06T09:15:29.109Z,22.07
2019-04-06T09:16:29.113Z,22.10
2019-04-06T09:17:29.120Z,22.14
2019-04-06T09:18:29.210Z,22.14
2019-04-06T09:19:29.127Z,22.13
2019-04-06T09:20:29.209Z,22.14
2019-04-06T09:21:29.138Z,22.17
2019-04-06T09:22:29.143Z,22.07
2019-04-06T09:23:29.149Z,22.07
2019-04-06T09:24:29.185Z,22.22
2019-04-06T09:25:29.163Z,22.16
2019-04-06T09:26:29.164Z,22.14
2019-04-06T09:27:29.169Z,22.16
2019-04-06T09:28:29.177Z,22.19
2019-04-06T09:29:29.182Z,22.19
2019-04-06T09:30:29.382Z,22.27
2019-04-06T09:31:29.196Z,22.27
2019-04-06T09:32:29.196Z,22.23
2019-04-06T09:33:29.201Z,22.14
2019-04-06T09:34:31.060Z,22.25
2019-04-06T09:35:29.212Z,22.32
2019-04-06T09:36:29.217Z,22.38
2019-04-06T09:37:29.221Z,22.39
2019-04-06T09:38:29.227Z,22.39
2019-04-06T09:39:29.297Z,22.43
2019-04-06T09:40:29.240Z,22.39
2019-04-06T09:41:29.254Z,22.52
2019-04-06T09:42:29.542Z,22.54
2019-04-06T09:43:29.254Z,22.49
2019-04-06T09:44:29.505Z,22.56
2019-04-06T09:45:29.271Z,22.54
2019-04-06T09:46:29.278Z,22.52
2019-04-06T09:47:29.276Z,22.64
2019-04-06T09:48:29.282Z,22.49
2019-04-06T09:49:29.286Z,22.64
2019-04-06T09:50:29.296Z,22.69
2019-04-06T09:51:29.297Z,22.71
2019-04-06T09:52:29.303Z,22.72
2019-04-06T09:53:29.309Z,22.69
2019-04-06T09:54:29.315Z,22.71
2019-04-06T09:55:29.324Z,22.69
2019-04-06T09:56:29.325Z,22.80
2019-04-06T09:57:29.330Z,22.86
2019-04-06T09:58:29.335Z,22.78
2019-04-06T09:59:35.383Z,22.82
2019-04-06T10:00:29.348Z,22.83
2019-04-06T10:01:38.056Z,22.93
2019-04-06T10:02:29.361Z,22.94
2019-04-06T10:03:29.362Z,22.92
2019-04-06T10:04:29.369Z,22.99
2019-04-06T10:05:29.376Z,23.04
2019-04-06T10:06:32.124Z,23.01
2019-04-06T10:07:29.463Z,23.02
2019-04-06T10:08:29.391Z,23.04
2019-04-06T10:09:29.419Z,22.96
2019-04-06T10:10:29.412Z,23.02
2019-04-06T10:11:29.410Z,23.11
2019-04-06T10:12:29.414Z,22.99
2019-04-06T10:13:29.738Z,22.99
2019-04-06T10:14:29.543Z,23.05
2019-04-06T10:15:29.491Z,22.96
2019-04-06T10:16:29.438Z,23.04
2019-04-06T10:17:29.442Z,23.08
2019-04-06T10:18:29.449Z,23.07
2019-04-06T10:19:29.464Z,22.96
2019-04-06T10:20:29.642Z,23.05
2019-04-06T10:21:29.478Z,22.93
2019-04-06T10:22:29.523Z,23.01
2019-04-06T10:23:29.476Z,23.01
2019-04-06T10:24:29.640Z,22.97
2019-04-06T10:25:29.496Z,23.04
2019-04-06T10:26:29.592Z,23.07
2019-04-06T10:27:29.551Z,23.11
2019-04-06T10:28:29.848Z,23.15
2019-04-06T10:29:29.512Z,23.11
2019-04-06T10:30:29.518Z,23.15
2019-04-06T10:31:29.522Z,23.14
2019-04-06T10:32:29.596Z,23.14
2019-04-06T10:33:29.534Z,23.11
2019-04-06T10:34:29.540Z,23.12
2019-04-06T10:35:29.545Z,23.14
2019-04-06T10:36:31.684Z,23.15
2019-04-06T10:37:29.556Z,23.09
2019-04-06T10:38:29.562Z,23.19
2019-04-06T10:39:29.676Z,23.24
2019-04-06T10:40:29.649Z,23.11
2019-04-06T10:41:29.581Z,23.15
2019-04-06T10:42:29.662Z,23.19
2019-04-06T10:43:29.592Z,23.17
2019-04-06T10:44:29.599Z,23.12
2019-04-06T10:45:29.602Z,23.15
2019-04-06T10:46:29.610Z,23.26
2019-04-06T10:47:29.617Z,23.19
2019-04-06T10:48:29.622Z,23.17
2019-04-06T10:49:29.626Z,23.15
2019-04-06T10:50:29.634Z,23.27
2019-04-06T10:51:29.641Z,23.27
2019-04-06T10:52:29.647Z,23.17
2019-04-06T10:53:29.655Z,23.09
2019-04-06T10:54:29.826Z,23.12
2019-04-06T10:55:29.663Z,23.14
2019-04-06T10:56:29.670Z,23.20
2019-04-06T10:57:29.924Z,23.29
2019-04-06T10:58:29.916Z,23.23
2019-04-06T10:59:29.746Z,23.23
2019-04-06T11:00:29.922Z,23.22
2019-04-06T11:01:29.730Z,23.29
2019-04-06T11:02:30.007Z,23.40
2019-04-06T11:03:30.005Z,23.26
2019-04-06T11:04:29.719Z,23.38
2019-04-06T11:05:29.756Z,23.24
2019-04-06T11:06:29.731Z,23.29
2019-04-06T11:07:29.736Z,23.35
2019-04-06T11:08:29.741Z,23.39
2019-04-06T11:09:29.746Z,23.39
2019-04-06T11:10:29.810Z,23.42
2019-04-06T11:11:29.763Z,23.43
2019-04-06T11:12:29.765Z,23.43
2019-04-06T11:13:29.770Z,23.46
2019-04-06T11:14:29.978Z,23.39
2019-04-06T11:15:29.784Z,23.43
2019-04-06T11:16:29.795Z,23.49
2019-04-06T11:17:29.795Z,23.42
2019-04-06T11:18:29.800Z,23.47
2019-04-06T11:19:30.066Z,23.38
2019-04-06T11:20:29.812Z,23.47
2019-04-06T11:21:30.045Z,23.55
2019-04-06T11:22:30.080Z,23.55
2019-04-06T11:23:29.880Z,23.53
2019-04-06T11:24:29.839Z,23.47
2019-04-06T11:25:29.843Z,23.43
2019-04-06T11:26:29.850Z,23.46
2019-04-06T11:27:29.913Z,23.46
2019-04-06T11:28:29.867Z,23.40
2019-04-06T11:29:29.868Z,23.39
2019-04-06T11:30:29.875Z,23.40
2019-04-06T11:31:30.007Z,23.52
2019-04-06T11:32:29.892Z,23.58
2019-04-06T11:33:29.902Z,23.47
2019-04-06T11:34:29.902Z,23.52
2019-04-06T11:35:29.906Z,23.55
2019-04-06T11:36:29.912Z,23.60
2019-04-06T11:37:29.927Z,23.55
2019-04-06T11:38:29.964Z,23.58
2019-04-06T11:39:29.929Z,23.55
2019-04-06T11:40:29.936Z,23.62
2019-04-06T11:41:29.942Z,23.57
2019-04-06T11:42:29.950Z,23.57
2019-04-06T11:43:29.955Z,23.57
2019-04-06T11:44:29.973Z,23.55
2019-04-06T11:45:30.251Z,23.55
2019-04-06T11:46:29.973Z,23.64
2019-04-06T11:47:29.981Z,23.62
2019-04-06T11:48:29.985Z,23.57
2019-04-06T11:49:29.991Z,23.71
2019-04-06T11:50:30.009Z,23.67
2019-04-06T11:51:30.003Z,23.67
2019-04-06T11:52:30.035Z,23.70
2019-04-06T11:53:30.017Z,23.71
2019-04-06T11:54:30.024Z,23.68
2019-04-06T11:55:30.036Z,23.67
2019-04-06T11:56:30.310Z,23.64
2019-04-06T11:57:30.041Z,23.79
2019-04-06T11:58:30.049Z,23.72
2019-04-06T11:59:30.291Z,23.75
2019-04-06T12:00:30.063Z,23.71
2019-04-06T12:01:30.067Z,23.75
2019-04-06T12:02:30.072Z,23.76
2019-04-06T12:03:30.315Z,23.76
2019-04-06T12:04:30.395Z,23.70
2019-04-06T12:05:30.102Z,23.77
2019-04-06T12:06:30.335Z,23.76
2019-04-06T12:07:30.106Z,23.76
2019-04-06T12:08:30.112Z,23.70
2019-04-06T12:09:30.201Z,23.76
2019-04-06T12:10:30.124Z,23.72
2019-04-06T12:11:30.131Z,23.80
2019-04-06T12:12:30.228Z,23.72
2019-04-06T12:13:30.143Z,23.83
2019-04-06T12:14:30.149Z,23.79
2019-04-06T12:15:30.242Z,23.86
2019-04-06T12:16:30.163Z,23.82
2019-04-06T12:17:30.172Z,23.79
2019-04-06T12:18:30.513Z,23.83
2019-04-06T12:19:30.181Z,23.87
2019-04-06T12:20:30.450Z,23.82
2019-04-06T12:21:30.194Z,23.79
2019-04-06T12:22:30.264Z,23.79
2019-04-06T12:23:32.869Z,23.85
2019-04-06T12:24:30.212Z,23.82
2019-04-06T12:25:30.220Z,23.89
2019-04-06T12:26:30.226Z,23.85
2019-04-06T12:27:30.231Z,23.89
2019-04-06T12:28:30.238Z,23.87
2019-04-06T12:29:30.244Z,23.86
2019-04-06T12:30:37.288Z,23.80
2019-04-06T12:31:30.261Z,23.75
2019-04-06T12:32:30.274Z,23.71
2019-04-06T12:33:30.270Z,23.71
2019-04-06T12:34:30.288Z,23.79
2019-04-06T12:35:30.282Z,23.76
2019-04-06T12:36:30.291Z,23.67
2019-04-06T12:37:30.549Z,23.64
2019-04-06T12:38:30.302Z,23.64
2019-04-06T12:39:30.433Z,23.55
2019-04-06T12:40:30.316Z,23.72
2019-04-06T12:41:30.697Z,23.64
2019-04-06T12:42:30.671Z,23.64
2019-04-06T12:43:31.890Z,23.61
2019-04-06T12:44:30.341Z,23.65
2019-04-06T12:45:30.378Z,23.64
2019-04-06T12:46:30.356Z,23.57
2019-04-06T12:47:30.396Z,23.55
2019-04-06T12:48:30.655Z,23.57
2019-04-06T12:49:30.373Z,23.55
2019-04-06T12:50:30.696Z,23.50
2019-04-06T12:51:30.607Z,23.52
2019-04-06T12:52:30.393Z,23.55